Terminal Aerodrome Forecast
Issued by NWS Duluth, MN

Home | Current Version | Previous Version | Text Only | Print | Product List | Glossary On
Versions: 1 2 3 4 5 6 7 8 9 10 11 12 13 14 15 16
860
FTUS43 KDLH 162339
TAFDLH
TAF
KDLH 162339Z 1700/1724 VRB03KT P6SM BKN200
     FM170400 34003KT 4SM BR BKN200
      TEMPO 1705/1709 2SM BR SCT005
     FM170900 00000KT 1SM BR SCT003
      TEMPO 1711/1715 1/4SM FZFG OVC002
     FM171700 25005KT 6SM BR SCT005=

USA.gov is the U.S. government's official web portal to all federal, state and local government web resources and services.